Time;durP1;ratioP1;P1;durP2;ratioP2;P2;SDS_P1;SDS_P2;PMS_P1;PMS_P2;Temp;Humidity;BMP_temperature;BMP_pressure;BME280_temperature;BME280_humidity;BME280_pressure;Samples;Min_cycle;Max_cycle;Signal;HPM_P1;HPM_P2
2023/03/21 00:02:30;;;;;;;31.52;26.50;;;;;;;;;;10190756;28;20547;-68
2023/03/21 00:07:25;;;;;;;32.38;24.88;;;;;;;;;;10191590;28;20044;-68
2023/03/21 00:12:19;;;;;;;25.23;22.55;;;;;;;;;;10191041;28;20093;-68
2023/03/21 00:17:14;;;;;;;30.13;24.95;;;;;;;;;;10190895;28;20044;-68
2023/03/21 00:22:07;;;;;;;28.10;24.08;;;;;;;;;;10190629;28;20052;-67
2023/03/21 00:27:01;;;;;;;33.47;21.45;;;;;;;;;;10190050;28;20090;-67
2023/03/21 00:32:14;;;;;;;28.55;23.25;;;;;;;;;;10189887;28;20416;-67
2023/03/21 00:37:31;;;;;;;27.30;23.67;;;;;;;;;;10186801;28;20060;-67
2023/03/21 00:42:25;;;;;;;23.80;21.33;;;;;;;;;;10184567;28;20048;-68
2023/03/21 00:47:19;;;;;;;26.85;22.45;;;;;;;;;;10175324;28;20105;-68
2023/03/21 00:52:14;;;;;;;27.25;22.52;;;;;;;;;;10184142;28;20444;-68
2023/03/21 00:57:19;;;;;;;25.83;23.02;;;;;;;;;;10189109;28;20409;-67
2023/03/21 01:02:27;;;;;;;30.02;23.30;;;;;;;;;;10180125;28;20090;-67
2023/03/21 01:07:22;;;;;;;27.90;23.10;;;;;;;;;;10189186;28;20044;-67
2023/03/21 01:12:16;;;;;;;27.90;21.50;;;;;;;;;;10188519;28;20051;-67
2023/03/21 01:17:08;;;;;;;28.38;22.80;;;;;;;;;;10172283;28;20043;-67
2023/03/21 01:22:02;;;;;;;25.92;22.90;;;;;;;;;;10178314;28;20045;-67
2023/03/21 01:26:55;;;;;;;23.73;21.10;;;;;;;;;;10187559;28;20051;-67
2023/03/21 01:31:48;;;;;;;23.92;21.13;;;;;;;;;;10187511;28;20541;-67
2023/03/21 01:36:42;;;;;;;22.35;20.02;;;;;;;;;;10182774;28;20068;-67
2023/03/21 01:41:41;;;;;;;22.88;19.85;;;;;;;;;;10181684;28;20452;-67
2023/03/21 01:46:51;;;;;;;25.25;22.00;;;;;;;;;;10167654;28;20056;-67
2023/03/21 01:52:12;;;;;;;24.60;20.27;;;;;;;;;;10184691;28;20051;-67
2023/03/21 01:57:22;;;;;;;23.90;20.65;;;;;;;;;;10174861;28;20044;-67
2023/03/21 02:02:24;;;;;;;24.15;19.95;;;;;;;;;;10201949;28;20567;-66
2023/03/21 02:07:35;;;;;;;24.60;22.00;;;;;;;;;;10179292;28;20393;-66
2023/03/21 02:12:31;;;;;;;26.25;22.70;;;;;;;;;;10169305;28;20044;-66
2023/03/21 02:17:48;;;;;;;26.77;20.35;;;;;;;;;;10168526;28;20139;-66
2023/03/21 02:23:01;;;;;;;23.40;21.00;;;;;;;;;;10158649;28;20048;-66
2023/03/21 02:27:58;;;;;;;22.85;20.45;;;;;;;;;;10155058;28;20040;-66
2023/03/21 02:33:04;;;;;;;26.80;21.80;;;;;;;;;;10143778;28;20051;-66
2023/03/21 02:38:08;;;;;;;23.65;20.10;;;;;;;;;;10169566;28;20048;-66
2023/03/21 02:43:19;;;;;;;24.55;21.92;;;;;;;;;;10167317;28;20043;-66
2023/03/21 02:48:25;;;;;;;25.50;22.05;;;;;;;;;;10176606;28;20499;-66
2023/03/21 02:53:36;;;;;;;25.23;21.15;;;;;;;;;;10151510;28;20052;-66
2023/03/21 02:58:31;;;;;;;21.20;19.00;;;;;;;;;;10158015;28;20087;-66
2023/03/21 03:03:46;;;;;;;24.45;19.80;;;;;;;;;;10160002;28;20138;-66
2023/03/21 03:08:48;;;;;;;22.88;19.92;;;;;;;;;;10175196;28;20142;-66
2023/03/21 03:14:17;;;;;;;25.70;20.35;;;;;;;;;;10169340;28;20127;-66
2023/03/21 03:19:36;;;;;;;24.25;20.13;;;;;;;;;;10147581;28;20549;-66
2023/03/21 03:24:58;;;;;;;24.73;19.63;;;;;;;;;;10165741;28;20047;-66
2023/03/21 03:29:58;;;;;;;22.35;19.83;;;;;;;;;;10176788;28;20131;-66
2023/03/21 03:34:55;;;;;;;23.55;18.70;;;;;;;;;;10168353;28;20076;-66
2023/03/21 03:40:29;;;;;;;22.60;19.85;;;;;;;;;;10163169;28;20040;-66
2023/03/21 03:45:41;;;;;;;23.17;17.75;;;;;;;;;;10176020;28;20048;-66
2023/03/21 03:50:52;;;;;;;24.77;19.10;;;;;;;;;;10174477;28;20048;-66
2023/03/21 03:55:56;;;;;;;20.90;18.67;;;;;;;;;;10187542;28;20040;-66
2023/03/21 04:00:50;;;;;;;20.63;18.42;;;;;;;;;;10191352;28;20039;-66
2023/03/21 04:05:45;;;;;;;23.98;20.95;;;;;;;;;;10153906;28;20058;-66
2023/03/21 04:10:41;;;;;;;22.67;19.02;;;;;;;;;;10175083;28;20140;-66
2023/03/21 04:15:35;;;;;;;22.10;17.80;;;;;;;;;;10166248;28;20075;-66
2023/03/21 04:20:35;;;;;;;20.25;18.05;;;;;;;;;;10183906;28;20073;-66
2023/03/21 04:25:35;;;;;;;21.92;18.20;;;;;;;;;;10184962;28;20044;-66
2023/03/21 04:30:40;;;;;;;24.15;19.15;;;;;;;;;;10177379;28;20573;-66
2023/03/21 04:36:23;;;;;;;23.38;18.52;;;;;;;;;;10181199;28;20048;-66
2023/03/21 04:41:19;;;;;;;23.88;21.35;;;;;;;;;;10174605;28;20048;-66
2023/03/21 04:46:14;;;;;;;26.50;19.63;;;;;;;;;;10159675;28;20056;-66
2023/03/21 04:51:07;;;;;;;22.48;19.45;;;;;;;;;;10166247;28;20054;-66
2023/03/21 04:56:00;;;;;;;22.30;19.92;;;;;;;;;;10175174;28;20075;-65
2023/03/21 05:00:56;;;;;;;24.63;17.13;;;;;;;;;;10172472;28;20052;-65
2023/03/21 05:05:49;;;;;;;18.50;16.52;;;;;;;;;;10188797;28;20105;-66
2023/03/21 05:10:44;;;;;;;20.90;18.17;;;;;;;;;;10188248;28;20055;-66
2023/03/21 05:15:37;;;;;;;19.40;17.40;;;;;;;;;;10176607;28;20099;-66
2023/03/21 05:20:31;;;;;;;18.83;16.90;;;;;;;;;;10172139;28;20058;-66
2023/03/21 05:25:33;;;;;;;20.25;18.25;;;;;;;;;;10153464;28;20131;-65
2023/03/21 05:30:33;;;;;;;21.42;18.05;;;;;;;;;;10161978;28;20044;-65
2023/03/21 05:35:27;;;;;;;27.55;18.83;;;;;;;;;;10160016;28;20056;-66
2023/03/21 05:40:23;;;;;;;22.85;18.63;;;;;;;;;;10174138;28;20071;-66
2023/03/21 05:45:21;;;;;;;23.25;19.73;;;;;;;;;;10193341;28;20060;-66
2023/03/21 05:50:16;;;;;;;25.05;21.95;;;;;;;;;;10164902;28;20059;-66
2023/03/21 05:55:18;;;;;;;24.27;21.50;;;;;;;;;;10164846;28;20051;-66
2023/03/21 06:00:16;;;;;;;29.55;22.60;;;;;;;;;;10163890;28;20048;-65
2023/03/21 06:05:26;;;;;;;26.50;22.20;;;;;;;;;;10164286;28;20079;-64
2023/03/21 06:10:20;;;;;;;28.50;20.45;;;;;;;;;;10166701;28;20534;-65
2023/03/21 06:15:14;;;;;;;30.00;21.73;;;;;;;;;;10157410;28;20118;-65
2023/03/21 06:20:36;;;;;;;23.73;19.83;;;;;;;;;;10166431;28;20097;-65
2023/03/21 06:25:34;;;;;;;26.15;19.60;;;;;;;;;;10167429;28;20094;-66
2023/03/21 06:30:27;;;;;;;25.15;19.95;;;;;;;;;;10183987;28;20040;-66
2023/03/21 06:35:33;;;;;;;25.50;21.23;;;;;;;;;;10164241;28;20424;-65
2023/03/21 06:40:27;;;;;;;29.88;22.02;;;;;;;;;;10173469;28;20493;-66
2023/03/21 06:45:20;;;;;;;30.75;24.25;;;;;;;;;;10174160;28;20143;-67
2023/03/21 06:50:14;;;;;;;24.80;21.75;;;;;;;;;;10176107;28;20094;-66
2023/03/21 06:55:09;;;;;;;30.67;24.13;;;;;;;;;;10167711;28;20048;-66
2023/03/21 07:00:07;;;;;;;26.80;20.55;;;;;;;;;;10191998;28;20051;-66
2023/03/21 07:05:06;;;;;;;25.30;21.48;;;;;;;;;;10178741;28;20051;-66
2023/03/21 07:10:00;;;;;;;32.50;23.90;;;;;;;;;;10170117;28;20056;-66
2023/03/21 07:15:19;;;;;;;40.72;22.23;;;;;;;;;;10168927;28;20048;-66
2023/03/21 07:20:12;;;;;;;28.02;22.85;;;;;;;;;;10169345;28;20075;-65
2023/03/21 07:25:07;;;;;;;31.70;21.20;;;;;;;;;;10180236;28;20048;-66
2023/03/21 07:30:07;;;;;;;31.42;22.77;;;;;;;;;;10177559;28;20131;-65
2023/03/21 07:34:59;;;;;;;32.03;23.30;;;;;;;;;;10167149;28;20125;-65
2023/03/21 07:39:53;;;;;;;28.02;22.05;;;;;;;;;;10207224;28;20044;-65
2023/03/21 07:44:49;;;;;;;26.33;21.55;;;;;;;;;;10180264;28;20060;-66
2023/03/21 07:49:43;;;;;;;33.90;23.80;;;;;;;;;;10191572;28;20036;-66
2023/03/21 07:54:37;;;;;;;27.90;22.33;;;;;;;;;;10177290;28;20093;-65
2023/03/21 07:59:32;;;;;;;27.50;22.13;;;;;;;;;;10191648;28;20450;-65
2023/03/21 08:04:26;;;;;;;34.08;21.52;;;;;;;;;;10192270;28;20094;-66
2023/03/21 08:09:20;;;;;;;21.92;19.45;;;;;;;;;;10190191;28;20082;-64
2023/03/21 08:14:13;;;;;;;25.95;18.67;;;;;;;;;;10181686;28;20055;-66
2023/03/21 08:19:06;;;;;;;25.35;20.17;;;;;;;;;;10181602;28;20051;-66
2023/03/21 08:24:00;;;;;;;23.77;20.52;;;;;;;;;;10185268;28;20060;-66
2023/03/21 08:28:54;;;;;;;26.52;19.60;;;;;;;;;;10188345;28;20052;-64
2023/03/21 08:33:53;;;;;;;30.92;23.70;;;;;;;;;;10188731;28;20067;-64
2023/03/21 08:38:47;;;;;;;30.25;21.15;;;;;;;;;;10180899;28;20123;-64
2023/03/21 08:43:40;;;;;;;28.10;20.33;;;;;;;;;;10189389;28;20090;-64
2023/03/21 08:48:33;;;;;;;27.48;22.38;;;;;;;;;;10189145;28;20032;-64
2023/03/21 08:53:28;;;;;;;30.77;24.58;;;;;;;;;;10189331;28;20106;-66
2023/03/21 08:58:21;;;;;;;27.77;21.20;;;;;;;;;;10189090;28;20052;-65
2023/03/21 09:03:13;;;;;;;21.95;19.73;;;;;;;;;;10190469;28;20050;-65
2023/03/21 09:08:07;;;;;;;27.42;20.77;;;;;;;;;;10191315;28;20557;-65
2023/03/21 09:13:01;;;;;;;26.33;18.10;;;;;;;;;;10189002;28;20094;-66
2023/03/21 09:17:57;;;;;;;22.50;18.63;;;;;;;;;;10188477;28;20489;-66
2023/03/21 09:22:52;;;;;;;21.50;17.33;;;;;;;;;;10187361;28;20057;-66
2023/03/21 09:27:45;;;;;;;21.02;18.92;;;;;;;;;;10187716;28;20040;-65
2023/03/21 09:32:38;;;;;;;20.05;17.67;;;;;;;;;;10187410;28;20447;-65
2023/03/21 09:37:32;;;;;;;20.77;18.35;;;;;;;;;;10181305;28;20039;-65
2023/03/21 09:42:39;;;;;;;20.58;18.77;;;;;;;;;;10186961;28;20046;-65
2023/03/21 09:47:51;;;;;;;22.08;19.98;;;;;;;;;;10176150;28;20416;-66
2023/03/21 09:52:52;;;;;;;19.58;17.73;;;;;;;;;;10185460;28;20044;-65
2023/03/21 09:58:06;;;;;;;25.65;17.35;;;;;;;;;;10180519;28;20052;-65
2023/03/21 10:03:05;;;;;;;20.05;18.05;;;;;;;;;;10164667;28;20052;-65
2023/03/21 10:08:21;;;;;;;19.60;17.52;;;;;;;;;;10177581;28;20101;-65
2023/03/21 10:13:33;;;;;;;19.48;17.48;;;;;;;;;;10127013;28;20471;-65
2023/03/21 10:18:36;;;;;;;17.90;15.75;;;;;;;;;;10180590;28;20055;-66
2023/03/21 10:23:29;;;;;;;17.00;15.27;;;;;;;;;;10185612;28;20079;-66
2023/03/21 10:28:29;;;;;;;17.50;15.63;;;;;;;;;;10171585;28;20044;-66
2023/03/21 10:33:44;;;;;;;21.20;16.58;;;;;;;;;;10169061;28;20404;-66
2023/03/21 10:38:38;;;;;;;;;;;;;;;;;;10172272;28;20481;-66
2023/03/21 10:43:36;;;;;;;14.63;13.20;;;;;;;;;;10169062;28;20357;-65
2023/03/21 10:48:35;;;;;;;10.25;8.23;;;;;;;;;;10185385;28;20048;-65
2023/03/21 10:53:32;;;;;;;12.27;10.68;;;;;;;;;;10184931;28;20052;-65
2023/03/21 10:58:34;;;;;;;11.03;10.03;;;;;;;;;;10168937;28;20495;-65
2023/03/21 11:03:50;;;;;;;16.27;14.05;;;;;;;;;;10169784;28;20572;-65
2023/03/21 11:08:50;;;;;;;16.00;14.43;;;;;;;;;;10181524;28;20059;-65
2023/03/21 11:13:44;;;;;;;13.63;11.60;;;;;;;;;;10184522;28;20082;-65
2023/03/21 11:18:43;;;;;;;16.08;14.45;;;;;;;;;;10184579;28;20101;-65
2023/03/21 11:23:42;;;;;;;18.48;13.50;;;;;;;;;;10180017;28;20495;-65
2023/03/21 11:28:39;;;;;;;11.68;10.43;;;;;;;;;;10171584;28;20044;-65
2023/03/21 11:33:39;;;;;;;12.82;10.32;;;;;;;;;;10183905;28;20424;-65
2023/03/21 11:38:37;;;;;;;12.45;11.30;;;;;;;;;;10184023;28;20048;-65
2023/03/21 11:43:35;;;;;;;13.13;11.65;;;;;;;;;;10185363;28;20109;-64
2023/03/21 11:48:27;;;;;;;11.50;10.30;;;;;;;;;;10191092;28;20052;-65
2023/03/21 11:53:38;;;;;;;12.63;11.35;;;;;;;;;;10190070;28;20148;-65
2023/03/21 11:59:05;;;;;;;13.23;11.95;;;;;;;;;;10174134;28;20052;-65
2023/03/21 12:04:18;;;;;;;14.18;11.90;;;;;;;;;;10200172;28;20096;-64
2023/03/21 12:09:11;;;;;;;12.50;11.40;;;;;;;;;;10185461;28;20048;-65
2023/03/21 12:14:19;;;;;;;14.95;13.50;;;;;;;;;;10190813;28;20105;-65
2023/03/21 12:19:53;;;;;;;13.65;12.25;;;;;;;;;;10180721;28;20071;-64
2023/03/21 12:25:21;;;;;;;14.88;13.00;;;;;;;;;;10176003;28;20113;-65
2023/03/21 12:30:32;;;;;;;13.32;11.93;;;;;;;;;;10182550;28;20077;-64
2023/03/21 12:35:40;;;;;;;12.40;11.30;;;;;;;;;;10181581;28;20055;-65
2023/03/21 12:41:00;;;;;;;11.60;10.60;;;;;;;;;;10189601;28;20097;-64
2023/03/21 12:46:16;;;;;;;12.82;11.63;;;;;;;;;;10190303;28;20049;-64
2023/03/21 12:51:20;;;;;;;14.55;11.07;;;;;;;;;;10149901;28;20090;-64
2023/03/21 12:56:26;;;;;;;14.10;11.35;;;;;;;;;;10189010;28;20040;-64
2023/03/21 13:01:22;;;;;;;11.70;10.50;;;;;;;;;;10175512;28;20134;-64
2023/03/21 13:06:23;;;;;;;9.15;8.25;;;;;;;;;;10178486;28;20044;-64
2023/03/21 13:11:23;;;;;;;9.15;8.27;;;;;;;;;;10180473;28;20047;-64
2023/03/21 13:16:47;;;;;;;9.90;9.05;;;;;;;;;;10167148;28;20703;-64
2023/03/21 13:22:04;;;;;;;11.05;9.95;;;;;;;;;;10173745;28;20048;-64
2023/03/21 13:27:07;;;;;;;12.90;9.93;;;;;;;;;;10180281;28;20101;-64
2023/03/21 13:32:27;;;;;;;12.98;10.50;;;;;;;;;;10186953;28;20044;-64
2023/03/21 13:37:20;;;;;;;12.45;11.25;;;;;;;;;;10183305;28;20445;-63
2023/03/21 13:42:44;;;;;;;14.77;12.68;;;;;;;;;;10172167;28;20089;-63
2023/03/21 13:47:51;;;;;;;15.68;11.88;;;;;;;;;;10186236;28;20101;-64
2023/03/21 13:53:08;;;;;;;10.60;9.35;;;;;;;;;;10176544;28;20449;-63
2023/03/21 13:58:23;;;;;;;11.63;10.53;;;;;;;;;;10180845;28;20106;-64
2023/03/21 14:03:17;;;;;;;12.93;11.73;;;;;;;;;;10188604;28;20059;-64
2023/03/21 14:08:17;;;;;;;14.48;13.02;;;;;;;;;;10187386;28;20074;-63
2023/03/21 14:13:26;;;;;;;21.30;15.93;;;;;;;;;;10181289;28;20048;-64
2023/03/21 14:18:42;;;;;;;14.30;13.00;;;;;;;;;;10151460;28;20124;-63
2023/03/21 14:23:45;;;;;;;14.80;11.68;;;;;;;;;;10185853;28;20531;-63
2023/03/21 14:28:45;;;;;;;14.02;12.45;;;;;;;;;;10185925;28;20040;-64
2023/03/21 14:33:40;;;;;;;15.85;14.15;;;;;;;;;;10165297;28;20055;-65
2023/03/21 14:38:36;;;;;;;17.10;12.80;;;;;;;;;;10180547;28;20059;-64
2023/03/21 14:43:32;;;;;;;15.35;11.85;;;;;;;;;;10181995;28;20060;-64
2023/03/21 14:48:34;;;;;;;15.13;11.70;;;;;;;;;;10183167;28;20555;-64
2023/03/21 14:53:29;;;;;;;12.38;11.00;;;;;;;;;;10179608;28;20071;-63
2023/03/21 14:58:22;;;;;;;14.00;11.45;;;;;;;;;;10179088;28;20036;-64
2023/03/21 15:03:16;;;;;;;13.25;12.00;;;;;;;;;;10171679;28;20465;-64
2023/03/21 15:08:19;;;;;;;14.50;10.27;;;;;;;;;;10167817;28;20134;-62
2023/03/21 15:13:18;;;;;;;13.50;11.30;;;;;;;;;;10184043;28;20064;-63
2023/03/21 15:18:15;;;;;;;13.05;11.23;;;;;;;;;;10185005;28;20134;-62
2023/03/21 15:23:27;;;;;;;14.38;12.50;;;;;;;;;;10176854;28;20441;-63
2023/03/21 15:28:20;;;;;;;20.00;11.90;;;;;;;;;;10185038;28;20044;-62
2023/03/21 15:33:13;;;;;;;21.90;12.60;;;;;;;;;;10190450;28;20056;-62
2023/03/21 15:38:07;;;;;;;26.00;13.43;;;;;;;;;;10192234;28;20055;-62
2023/03/21 15:43:25;;;;;;;13.80;11.68;;;;;;;;;;10191613;28;20468;-62
2023/03/21 15:48:25;;;;;;;12.55;10.98;;;;;;;;;;10185616;28;20496;-62
2023/03/21 15:53:18;;;;;;;11.55;10.38;;;;;;;;;;10191006;28;20043;-62
2023/03/21 15:58:15;;;;;;;16.35;12.27;;;;;;;;;;10173871;28;20094;-62
2023/03/21 16:03:24;;;;;;;12.15;10.90;;;;;;;;;;10175634;28;20072;-62
2023/03/21 16:08:22;;;;;;;12.95;10.85;;;;;;;;;;10186175;28;20531;-63
2023/03/21 16:13:16;;;;;;;12.63;10.98;;;;;;;;;;10172232;28;20115;-62
2023/03/21 16:18:15;;;;;;;12.75;10.88;;;;;;;;;;10189296;28;20060;-63
2023/03/21 16:23:09;;;;;;;;;;;;;;;;;;10189891;28;20522;-62
2023/03/21 16:28:02;;;;;;;18.45;12.38;;;;;;;;;;10185127;28;19920;-62
2023/03/21 16:32:57;;;;;;;15.50;13.00;;;;;;;;;;10180854;28;20113;-62
2023/03/21 16:37:50;;;;;;;15.02;13.40;;;;;;;;;;10188048;28;20127;-62
2023/03/21 16:42:45;;;;;;;16.98;15.30;;;;;;;;;;10189375;28;20048;-62
2023/03/21 16:47:39;;;;;;;21.92;17.42;;;;;;;;;;10185328;28;20144;-63
2023/03/21 16:52:33;;;;;;;18.88;16.80;;;;;;;;;;10188803;28;20097;-63
2023/03/21 16:57:26;;;;;;;20.40;16.70;;;;;;;;;;10187363;28;20072;-63
2023/03/21 17:02:18;;;;;;;17.50;14.82;;;;;;;;;;10188444;28;20381;-65
2023/03/21 17:07:13;;;;;;;24.67;16.02;;;;;;;;;;10160832;28;20083;-62
2023/03/21 17:12:15;;;;;;;19.83;16.23;;;;;;;;;;10187577;28;20052;-62
2023/03/21 17:17:12;;;;;;;19.58;15.65;;;;;;;;;;10182485;28;20067;-62
2023/03/21 17:22:06;;;;;;;19.15;16.20;;;;;;;;;;10184589;28;20074;-63
2023/03/21 17:27:00;;;;;;;18.65;15.77;;;;;;;;;;10188032;28;20083;-62
2023/03/21 17:31:53;;;;;;;21.05;15.73;;;;;;;;;;10188416;28;20074;-62
2023/03/21 17:36:50;;;;;;;28.33;16.63;;;;;;;;;;10192366;28;20048;-62
2023/03/21 17:41:43;;;;;;;17.38;15.63;;;;;;;;;;10187359;28;20531;-62
2023/03/21 17:46:36;;;;;;;29.15;18.30;;;;;;;;;;10188077;28;20138;-62
2023/03/21 17:51:32;;;;;;;23.63;21.13;;;;;;;;;;10187296;28;20435;-63
2023/03/21 17:56:26;;;;;;;26.08;21.67;;;;;;;;;;10176738;28;20052;-64
2023/03/21 18:01:19;;;;;;;33.65;27.98;;;;;;;;;;10179983;28;20097;-64
2023/03/21 18:06:19;;;;;;;30.83;27.45;;;;;;;;;;10186110;28;20052;-63
2023/03/21 18:11:13;;;;;;;42.30;31.45;;;;;;;;;;10186296;28;20040;-62
2023/03/21 18:16:07;;;;;;;34.00;28.15;;;;;;;;;;10187154;28;20408;-63
2023/03/21 18:21:01;;;;;;;29.45;26.25;;;;;;;;;;10186440;28;20139;-63
2023/03/21 18:25:54;;;;;;;29.13;25.08;;;;;;;;;;10185937;28;20117;-63
2023/03/21 18:30:48;;;;;;;43.67;28.60;;;;;;;;;;10185604;28;20063;-64
2023/03/21 18:35:59;;;;;;;31.90;28.25;;;;;;;;;;10183410;28;20048;-64
2023/03/21 18:40:58;;;;;;;34.10;30.33;;;;;;;;;;10186227;28;20613;-63
2023/03/21 18:45:52;;;;;;;37.13;31.52;;;;;;;;;;10186142;28;20424;-66
2023/03/21 18:50:47;;;;;;;31.17;27.90;;;;;;;;;;10185397;28;20044;-63
2023/03/21 18:55:42;;;;;;;28.35;25.40;;;;;;;;;;10184724;28;20054;-65
2023/03/21 19:00:40;;;;;;;31.63;26.83;;;;;;;;;;10186192;28;20036;-68
2023/03/21 19:06:00;;;;;;;29.92;26.70;;;;;;;;;;10186179;28;20054;-65
2023/03/21 19:11:12;;;;;;;34.88;26.58;;;;;;;;;;10184383;28;20076;-63
2023/03/21 19:16:06;;;;;;;33.85;29.40;;;;;;;;;;10185104;28;20052;-65
2023/03/21 19:21:05;;;;;;;33.27;29.80;;;;;;;;;;10185006;28;20044;-65
2023/03/21 19:25:59;;;;;;;31.73;28.38;;;;;;;;;;10184497;28;20044;-64
2023/03/21 19:30:54;;;;;;;33.28;28.70;;;;;;;;;;10184138;28;20497;-64
2023/03/21 19:35:49;;;;;;;34.20;30.67;;;;;;;;;;10182111;28;20042;-63
2023/03/21 19:41:03;;;;;;;35.42;29.42;;;;;;;;;;10179558;28;20139;-63
2023/03/21 19:45:59;;;;;;;33.67;30.02;;;;;;;;;;10178539;28;20105;-65
2023/03/21 19:50:52;;;;;;;36.72;31.33;;;;;;;;;;10176287;28;20462;-64
2023/03/21 19:56:05;;;;;;;34.28;30.58;;;;;;;;;;10172974;28;20036;-64
2023/03/21 20:01:14;;;;;;;34.90;30.00;;;;;;;;;;10167434;28;20032;-63
2023/03/21 20:06:10;;;;;;;34.45;31.00;;;;;;;;;;10177403;28;20057;-63
2023/03/21 20:11:04;;;;;;;34.42;30.90;;;;;;;;;;10182493;28;20533;-63
2023/03/21 20:15:58;;;;;;;37.10;32.75;;;;;;;;;;10182926;28;20060;-64
2023/03/21 20:20:56;;;;;;;43.78;35.13;;;;;;;;;;10179106;28;20127;-63
2023/03/21 20:25:49;;;;;;;43.00;31.38;;;;;;;;;;10181403;28;20054;-65
2023/03/21 20:30:55;;;;;;;37.92;30.35;;;;;;;;;;10178695;28;20392;-66
2023/03/21 20:35:55;;;;;;;36.53;29.90;;;;;;;;;;10158797;28;20059;-66
2023/03/21 20:41:07;;;;;;;42.57;31.63;;;;;;;;;;10184380;28;20086;-65
2023/03/21 20:46:06;;;;;;;35.60;30.48;;;;;;;;;;10179141;28;20114;-64
2023/03/21 20:51:07;;;;;;;43.85;34.03;;;;;;;;;;10176752;28;20040;-65
2023/03/21 20:56:20;;;;;;;39.70;33.30;;;;;;;;;;10183199;28;20077;-65
2023/03/21 21:01:15;;;;;;;35.80;30.75;;;;;;;;;;10176332;28;20488;-66
2023/03/21 21:06:16;;;;;;;38.30;30.17;;;;;;;;;;10174104;28;20412;-66
2023/03/21 21:11:30;;;;;;;39.92;28.27;;;;;;;;;;10181220;28;20080;-66
2023/03/21 21:16:43;;;;;;;33.95;29.48;;;;;;;;;;10180129;28;20066;-65
2023/03/21 21:21:37;;;;;;;29.75;26.42;;;;;;;;;;10175936;28;20076;-65
2023/03/21 21:26:31;;;;;;;30.88;26.02;;;;;;;;;;10175639;28;20048;-65
2023/03/21 21:31:26;;;;;;;29.95;25.65;;;;;;;;;;10172892;28;20036;-66
2023/03/21 21:36:21;;;;;;;28.70;25.13;;;;;;;;;;10179117;28;20174;-64
2023/03/21 21:41:18;;;;;;;35.35;27.23;;;;;;;;;;10174820;28;20036;-64
2023/03/21 21:46:12;;;;;;;27.38;24.50;;;;;;;;;;10169539;28;20420;-65
2023/03/21 21:51:06;;;;;;;29.73;26.67;;;;;;;;;;10177315;28;20139;-63
2023/03/21 21:56:02;;;;;;;33.47;25.67;;;;;;;;;;10180561;28;20111;-64
2023/03/21 22:01:01;;;;;;;25.75;22.88;;;;;;;;;;10187369;28;20048;-64
2023/03/21 22:06:00;;;;;;;27.90;24.05;;;;;;;;;;10186596;28;20040;-63
2023/03/21 22:10:53;;;;;;;30.80;26.13;;;;;;;;;;10186237;28;20093;-64
2023/03/21 22:15:47;;;;;;;33.90;29.38;;;;;;;;;;10186683;28;20555;-64
2023/03/21 22:20:41;;;;;;;33.03;29.40;;;;;;;;;;10185733;28;20402;-64
2023/03/21 22:25:35;;;;;;;31.58;27.50;;;;;;;;;;10185659;28;20052;-64
2023/03/21 22:30:28;;;;;;;36.58;30.33;;;;;;;;;;10184925;28;20134;-64
2023/03/21 22:35:22;;;;;;;31.63;24.80;;;;;;;;;;10185504;28;20071;-64
2023/03/21 22:40:16;;;;;;;31.85;25.90;;;;;;;;;;10185840;28;20059;-64
2023/03/21 22:45:11;;;;;;;34.17;28.27;;;;;;;;;;10184691;28;20135;-64
2023/03/21 22:50:07;;;;;;;35.90;27.20;;;;;;;;;;10185669;28;20048;-64
2023/03/21 22:55:01;;;;;;;30.85;24.52;;;;;;;;;;10185405;28;20488;-65
2023/03/21 22:59:54;;;;;;;29.40;24.13;;;;;;;;;;10184867;28;20044;-64
2023/03/21 23:04:48;;;;;;;25.65;22.98;;;;;;;;;;10185616;28;20070;-64
2023/03/21 23:09:42;;;;;;;28.13;24.40;;;;;;;;;;10185106;28;20468;-64
2023/03/21 23:14:36;;;;;;;26.42;23.42;;;;;;;;;;10183292;28;20139;-64
2023/03/21 23:19:31;;;;;;;29.90;23.90;;;;;;;;;;10185008;28;20052;-65
2023/03/21 23:24:25;;;;;;;25.90;23.10;;;;;;;;;;10184757;28;20109;-64
2023/03/21 23:29:18;;;;;;;33.88;25.40;;;;;;;;;;10184438;28;20071;-64
2023/03/21 23:34:11;;;;;;;31.00;23.98;;;;;;;;;;10185214;28;20044;-64
2023/03/21 23:39:05;;;;;;;32.35;24.30;;;;;;;;;;10187041;28;20047;-64
2023/03/21 23:43:59;;;;;;;28.65;24.02;;;;;;;;;;10191751;28;20113;-64
2023/03/21 23:48:52;;;;;;;28.10;23.63;;;;;;;;;;10191669;28;20094;-64
2023/03/21 23:53:47;;;;;;;28.08;24.67;;;;;;;;;;10191300;28;20047;-64
2023/03/21 23:58:40;;;;;;;32.53;25.83;;;;;;;;;;10191590;28;20047;-64
